sensor_id;sensor_type;location;lat;lon;timestamp;P1;durP1;ratioP1;P2;durP2;ratioP2
53287;SDS011;39172;45.550;12.072;2023-03-14T00:02:45;11.98;;;8.90;;
53287;SDS011;39172;45.550;12.072;2023-03-14T00:08:46;9.38;;;7.30;;
53287;SDS011;39172;45.550;12.072;2023-03-14T00:14:47;8.00;;;6.00;;
53287;SDS011;39172;45.550;12.072;2023-03-14T00:20:48;10.52;;;7.97;;
53287;SDS011;39172;45.550;12.072;2023-03-14T00:26:49;19.50;;;13.38;;
53287;SDS011;39172;45.550;12.072;2023-03-14T00:32:50;17.08;;;12.02;;
53287;SDS011;39172;45.550;12.072;2023-03-14T00:38:51;16.83;;;11.35;;
53287;SDS011;39172;45.550;12.072;2023-03-14T00:44:52;11.15;;;8.63;;
53287;SDS011;39172;45.550;12.072;2023-03-14T00:50:52;10.18;;;8.18;;
53287;SDS011;39172;45.550;12.072;2023-03-14T00:56:53;11.88;;;9.35;;
53287;SDS011;39172;45.550;12.072;2023-03-14T01:02:54;12.70;;;9.80;;
53287;SDS011;39172;45.550;12.072;2023-03-14T01:08:55;12.38;;;9.25;;
53287;SDS011;39172;45.550;12.072;2023-03-14T01:14:56;11.82;;;9.43;;
53287;SDS011;39172;45.550;12.072;2023-03-14T01:20:58;13.02;;;9.20;;
53287;SDS011;39172;45.550;12.072;2023-03-14T01:26:59;9.73;;;7.93;;
53287;SDS011;39172;45.550;12.072;2023-03-14T01:33:02;22.90;;;14.75;;
53287;SDS011;39172;45.550;12.072;2023-03-14T01:39:03;16.52;;;11.18;;
53287;SDS011;39172;45.550;12.072;2023-03-14T01:45:04;14.32;;;10.40;;
53287;SDS011;39172;45.550;12.072;2023-03-14T01:51:06;12.55;;;8.90;;
53287;SDS011;39172;45.550;12.072;2023-03-14T01:57:11;12.73;;;8.73;;
53287;SDS011;39172;45.550;12.072;2023-03-14T02:03:15;20.40;;;12.55;;
53287;SDS011;39172;45.550;12.072;2023-03-14T02:09:17;17.73;;;11.90;;
53287;SDS011;39172;45.550;12.072;2023-03-14T02:15:19;13.52;;;8.57;;
53287;SDS011;39172;45.550;12.072;2023-03-14T02:27:46;10.90;;;7.15;;
53287;SDS011;39172;45.550;12.072;2023-03-14T02:33:48;9.98;;;7.05;;
53287;SDS011;39172;45.550;12.072;2023-03-14T02:39:49;16.13;;;10.10;;
53287;SDS011;39172;45.550;12.072;2023-03-14T02:45:51;11.70;;;8.27;;
53287;SDS011;39172;45.550;12.072;2023-03-14T02:51:55;10.73;;;7.22;;
53287;SDS011;39172;45.550;12.072;2023-03-14T02:57:56;8.55;;;6.72;;
53287;SDS011;39172;45.550;12.072;2023-03-14T03:03:57;9.27;;;7.00;;
53287;SDS011;39172;45.550;12.072;2023-03-14T03:09:58;12.50;;;8.00;;
53287;SDS011;39172;45.550;12.072;2023-03-14T03:15:59;16.25;;;11.20;;
53287;SDS011;39172;45.550;12.072;2023-03-14T03:22:00;10.75;;;7.47;;
53287;SDS011;39172;45.550;12.072;2023-03-14T03:28:01;9.82;;;6.60;;
53287;SDS011;39172;45.550;12.072;2023-03-14T03:34:02;10.48;;;6.80;;
53287;SDS011;39172;45.550;12.072;2023-03-14T03:40:04;9.95;;;6.75;;
53287;SDS011;39172;45.550;12.072;2023-03-14T03:46:07;10.25;;;7.20;;
53287;SDS011;39172;45.550;12.072;2023-03-14T03:52:08;11.32;;;7.07;;
53287;SDS011;39172;45.550;12.072;2023-03-14T03:58:09;8.70;;;6.50;;
53287;SDS011;39172;45.550;12.072;2023-03-14T04:04:10;9.02;;;5.38;;
53287;SDS011;39172;45.550;12.072;2023-03-14T04:10:11;9.27;;;6.45;;
53287;SDS011;39172;45.550;12.072;2023-03-14T04:16:18;8.65;;;6.40;;
53287;SDS011;39172;45.550;12.072;2023-03-14T04:22:20;12.00;;;8.50;;
53287;SDS011;39172;45.550;12.072;2023-03-14T04:28:24;7.93;;;6.10;;
53287;SDS011;39172;45.550;12.072;2023-03-14T04:34:25;7.95;;;6.45;;
53287;SDS011;39172;45.550;12.072;2023-03-14T04:40:28;9.95;;;6.82;;
53287;SDS011;39172;45.550;12.072;2023-03-14T04:46:34;10.65;;;7.65;;
53287;SDS011;39172;45.550;12.072;2023-03-14T04:52:38;14.43;;;8.55;;
53287;SDS011;39172;45.550;12.072;2023-03-14T04:58:39;11.98;;;8.48;;
53287;SDS011;39172;45.550;12.072;2023-03-14T05:04:41;9.63;;;7.18;;
53287;SDS011;39172;45.550;12.072;2023-03-14T05:10:58;10.35;;;7.25;;
53287;SDS011;39172;45.550;12.072;2023-03-14T05:17:13;9.52;;;7.40;;
53287;SDS011;39172;45.550;12.072;2023-03-14T05:23:44;11.15;;;7.60;;
53287;SDS011;39172;45.550;12.072;2023-03-14T05:30:08;10.75;;;8.07;;
53287;SDS011;39172;45.550;12.072;2023-03-14T05:36:48;10.48;;;7.20;;
53287;SDS011;39172;45.550;12.072;2023-03-14T05:43:10;8.65;;;6.68;;
53287;SDS011;39172;45.550;12.072;2023-03-14T05:49:14;9.38;;;6.70;;
53287;SDS011;39172;45.550;12.072;2023-03-14T05:55:36;9.25;;;6.40;;
53287;SDS011;39172;45.550;12.072;2023-03-14T06:01:55;11.05;;;6.85;;
53287;SDS011;39172;45.550;12.072;2023-03-14T06:08:00;10.27;;;6.65;;
53287;SDS011;39172;45.550;12.072;2023-03-14T06:14:04;11.18;;;6.20;;
53287;SDS011;39172;45.550;12.072;2023-03-14T06:20:05;10.10;;;6.43;;
53287;SDS011;39172;45.550;12.072;2023-03-14T06:26:06;10.57;;;6.65;;
53287;SDS011;39172;45.550;12.072;2023-03-14T06:32:07;10.25;;;6.70;;
53287;SDS011;39172;45.550;12.072;2023-03-14T06:38:11;8.73;;;6.18;;
53287;SDS011;39172;45.550;12.072;2023-03-14T06:44:12;7.00;;;5.32;;
53287;SDS011;39172;45.550;12.072;2023-03-14T06:50:13;9.65;;;6.10;;
53287;SDS011;39172;45.550;12.072;2023-03-14T06:56:16;8.82;;;5.90;;
53287;SDS011;39172;45.550;12.072;2023-03-14T07:02:17;8.07;;;5.65;;
53287;SDS011;39172;45.550;12.072;2023-03-14T07:08:19;11.07;;;6.20;;
53287;SDS011;39172;45.550;12.072;2023-03-14T07:14:20;7.88;;;4.85;;
53287;SDS011;39172;45.550;12.072;2023-03-14T07:20:21;5.47;;;4.38;;
53287;SDS011;39172;45.550;12.072;2023-03-14T07:26:22;5.57;;;3.75;;
53287;SDS011;39172;45.550;12.072;2023-03-14T07:32:25;10.63;;;5.85;;
53287;SDS011;39172;45.550;12.072;2023-03-14T07:38:27;10.05;;;6.55;;
53287;SDS011;39172;45.550;12.072;2023-03-14T07:44:47;9.55;;;6.10;;
53287;SDS011;39172;45.550;12.072;2023-03-14T07:50:49;12.45;;;6.63;;
53287;SDS011;39172;45.550;12.072;2023-03-14T07:56:50;10.32;;;6.18;;
53287;SDS011;39172;45.550;12.072;2023-03-14T08:02:52;9.85;;;6.18;;
53287;SDS011;39172;45.550;12.072;2023-03-14T08:08:53;9.95;;;6.43;;
53287;SDS011;39172;45.550;12.072;2023-03-14T08:14:54;8.88;;;6.20;;
53287;SDS011;39172;45.550;12.072;2023-03-14T08:20:55;10.70;;;7.50;;
53287;SDS011;39172;45.550;12.072;2023-03-14T08:26:55;12.73;;;7.53;;
53287;SDS011;39172;45.550;12.072;2023-03-14T08:32:57;11.13;;;7.82;;
53287;SDS011;39172;45.550;12.072;2023-03-14T08:38:58;14.88;;;9.60;;
53287;SDS011;39172;45.550;12.072;2023-03-14T08:44:59;14.27;;;8.55;;
53287;SDS011;39172;45.550;12.072;2023-03-14T08:51:06;13.35;;;9.10;;
53287;SDS011;39172;45.550;12.072;2023-03-14T08:57:07;13.02;;;8.60;;
53287;SDS011;39172;45.550;12.072;2023-03-14T09:03:08;9.68;;;6.93;;
53287;SDS011;39172;45.550;12.072;2023-03-14T09:09:09;10.55;;;7.18;;
53287;SDS011;39172;45.550;12.072;2023-03-14T09:15:10;17.42;;;10.15;;
53287;SDS011;39172;45.550;12.072;2023-03-14T09:21:11;11.43;;;7.68;;
53287;SDS011;39172;45.550;12.072;2023-03-14T09:27:11;13.43;;;8.02;;
53287;SDS011;39172;45.550;12.072;2023-03-14T09:33:12;12.48;;;8.75;;
53287;SDS011;39172;45.550;12.072;2023-03-14T09:39:13;12.05;;;7.43;;
53287;SDS011;39172;45.550;12.072;2023-03-14T09:45:17;10.98;;;6.90;;
53287;SDS011;39172;45.550;12.072;2023-03-14T09:51:19;12.30;;;7.75;;
53287;SDS011;39172;45.550;12.072;2023-03-14T09:57:23;10.63;;;7.13;;
53287;SDS011;39172;45.550;12.072;2023-03-14T10:09:29;11.25;;;6.80;;
53287;SDS011;39172;45.550;12.072;2023-03-14T10:15:31;8.45;;;5.63;;
53287;SDS011;39172;45.550;12.072;2023-03-14T10:21:37;13.70;;;7.40;;
53287;SDS011;39172;45.550;12.072;2023-03-14T10:27:38;10.18;;;5.78;;
53287;SDS011;39172;45.550;12.072;2023-03-14T10:33:39;9.65;;;6.13;;
53287;SDS011;39172;45.550;12.072;2023-03-14T10:39:41;9.55;;;5.90;;
53287;SDS011;39172;45.550;12.072;2023-03-14T10:45:44;8.90;;;5.53;;
53287;SDS011;39172;45.550;12.072;2023-03-14T10:51:46;11.00;;;6.00;;
53287;SDS011;39172;45.550;12.072;2023-03-14T10:57:47;12.52;;;5.80;;
53287;SDS011;39172;45.550;12.072;2023-03-14T11:03:51;7.43;;;5.25;;
53287;SDS011;39172;45.550;12.072;2023-03-14T11:09:56;9.88;;;5.20;;
53287;SDS011;39172;45.550;12.072;2023-03-14T11:16:03;8.13;;;4.30;;
53287;SDS011;39172;45.550;12.072;2023-03-14T11:22:09;12.85;;;6.07;;
53287;SDS011;39172;45.550;12.072;2023-03-14T11:40:20;7.63;;;3.72;;
53287;SDS011;39172;45.550;12.072;2023-03-14T11:46:23;9.15;;;3.92;;
53287;SDS011;39172;45.550;12.072;2023-03-14T11:58:33;6.57;;;3.05;;
53287;SDS011;39172;45.550;12.072;2023-03-14T12:10:54;4.32;;;2.45;;
53287;SDS011;39172;45.550;12.072;2023-03-14T12:16:57;7.25;;;3.65;;
53287;SDS011;39172;45.550;12.072;2023-03-14T12:23:02;12.88;;;4.95;;
53287;SDS011;39172;45.550;12.072;2023-03-14T12:41:29;4.28;;;2.40;;
53287;SDS011;39172;45.550;12.072;2023-03-14T12:59:52;8.00;;;3.67;;
53287;SDS011;39172;45.550;12.072;2023-03-14T13:12:11;5.75;;;2.80;;
53287;SDS011;39172;45.550;12.072;2023-03-14T13:24:21;9.43;;;4.53;;
53287;SDS011;39172;45.550;12.072;2023-03-14T13:30:26;7.45;;;3.67;;
53287;SDS011;39172;45.550;12.072;2023-03-14T13:36:30;8.00;;;3.35;;
53287;SDS011;39172;45.550;12.072;2023-03-14T13:42:31;4.72;;;2.90;;
53287;SDS011;39172;45.550;12.072;2023-03-14T13:48:33;5.75;;;2.97;;
53287;SDS011;39172;45.550;12.072;2023-03-14T13:54:35;7.32;;;3.33;;
53287;SDS011;39172;45.550;12.072;2023-03-14T14:00:38;10.68;;;4.95;;
53287;SDS011;39172;45.550;12.072;2023-03-14T14:06:46;8.80;;;3.45;;
53287;SDS011;39172;45.550;12.072;2023-03-14T14:12:52;6.75;;;3.33;;
53287;SDS011;39172;45.550;12.072;2023-03-14T14:18:56;6.10;;;3.65;;
53287;SDS011;39172;45.550;12.072;2023-03-14T14:24:57;9.02;;;3.60;;
53287;SDS011;39172;45.550;12.072;2023-03-14T14:37:27;9.10;;;4.32;;
53287;SDS011;39172;45.550;12.072;2023-03-14T14:43:30;7.30;;;3.10;;
53287;SDS011;39172;45.550;12.072;2023-03-14T14:49:32;5.35;;;2.58;;
53287;SDS011;39172;45.550;12.072;2023-03-14T14:55:34;4.30;;;2.58;;
53287;SDS011;39172;45.550;12.072;2023-03-14T15:01:39;7.30;;;3.30;;
53287;SDS011;39172;45.550;12.072;2023-03-14T15:07:40;12.57;;;4.72;;
53287;SDS011;39172;45.550;12.072;2023-03-14T15:13:41;7.65;;;3.80;;
53287;SDS011;39172;45.550;12.072;2023-03-14T15:19:41;5.75;;;2.90;;
53287;SDS011;39172;45.550;12.072;2023-03-14T15:25:42;4.38;;;2.47;;
53287;SDS011;39172;45.550;12.072;2023-03-14T15:31:45;4.35;;;2.85;;
53287;SDS011;39172;45.550;12.072;2023-03-14T15:37:46;8.40;;;3.40;;
53287;SDS011;39172;45.550;12.072;2023-03-14T15:43:47;10.25;;;4.15;;
53287;SDS011;39172;45.550;12.072;2023-03-14T15:49:48;7.18;;;3.25;;
53287;SDS011;39172;45.550;12.072;2023-03-14T15:55:49;6.80;;;2.80;;
53287;SDS011;39172;45.550;12.072;2023-03-14T16:01:51;5.55;;;2.55;;
53287;SDS011;39172;45.550;12.072;2023-03-14T16:07:52;5.82;;;3.00;;
53287;SDS011;39172;45.550;12.072;2023-03-14T16:13:53;10.13;;;4.20;;
53287;SDS011;39172;45.550;12.072;2023-03-14T16:19:54;9.30;;;3.95;;
53287;SDS011;39172;45.550;12.072;2023-03-14T16:25:55;7.22;;;3.90;;
53287;SDS011;39172;45.550;12.072;2023-03-14T16:31:56;5.13;;;3.00;;
53287;SDS011;39172;45.550;12.072;2023-03-14T16:37:59;5.78;;;2.78;;
53287;SDS011;39172;45.550;12.072;2023-03-14T16:43:59;4.65;;;2.78;;
53287;SDS011;39172;45.550;12.072;2023-03-14T16:50:01;6.95;;;2.95;;
53287;SDS011;39172;45.550;12.072;2023-03-14T16:56:02;9.55;;;4.20;;
53287;SDS011;39172;45.550;12.072;2023-03-14T17:02:03;6.55;;;3.90;;
53287;SDS011;39172;45.550;12.072;2023-03-14T17:08:04;4.68;;;3.03;;
53287;SDS011;39172;45.550;12.072;2023-03-14T17:14:05;8.32;;;3.65;;
53287;SDS011;39172;45.550;12.072;2023-03-14T17:20:06;13.43;;;6.30;;
53287;SDS011;39172;45.550;12.072;2023-03-14T17:26:08;13.95;;;7.35;;
53287;SDS011;39172;45.550;12.072;2023-03-14T17:32:09;9.70;;;5.07;;
53287;SDS011;39172;45.550;12.072;2023-03-14T17:38:10;8.52;;;4.38;;
53287;SDS011;39172;45.550;12.072;2023-03-14T17:44:11;5.85;;;3.67;;
53287;SDS011;39172;45.550;12.072;2023-03-14T17:50:12;6.22;;;3.80;;
53287;SDS011;39172;45.550;12.072;2023-03-14T17:56:13;17.55;;;7.68;;
53287;SDS011;39172;45.550;12.072;2023-03-14T18:02:14;9.82;;;5.13;;
53287;SDS011;39172;45.550;12.072;2023-03-14T18:08:15;7.10;;;4.40;;
53287;SDS011;39172;45.550;12.072;2023-03-14T18:14:16;6.95;;;4.10;;
53287;SDS011;39172;45.550;12.072;2023-03-14T18:20:17;6.03;;;3.45;;
53287;SDS011;39172;45.550;12.072;2023-03-14T18:26:18;19.38;;;8.98;;
53287;SDS011;39172;45.550;12.072;2023-03-14T18:32:18;15.57;;;6.82;;
53287;SDS011;39172;45.550;12.072;2023-03-14T18:38:19;10.77;;;5.63;;
53287;SDS011;39172;45.550;12.072;2023-03-14T18:44:20;8.32;;;4.68;;
53287;SDS011;39172;45.550;12.072;2023-03-14T18:50:21;9.10;;;4.60;;
53287;SDS011;39172;45.550;12.072;2023-03-14T18:56:23;8.45;;;4.47;;
53287;SDS011;39172;45.550;12.072;2023-03-14T19:02:24;11.57;;;6.15;;
53287;SDS011;39172;45.550;12.072;2023-03-14T19:08:26;9.93;;;5.20;;
53287;SDS011;39172;45.550;12.072;2023-03-14T19:14:27;14.60;;;6.88;;
53287;SDS011;39172;45.550;12.072;2023-03-14T19:20:28;8.25;;;5.15;;
53287;SDS011;39172;45.550;12.072;2023-03-14T19:26:29;16.13;;;7.90;;
53287;SDS011;39172;45.550;12.072;2023-03-14T19:32:32;18.52;;;9.82;;
53287;SDS011;39172;45.550;12.072;2023-03-14T19:38:33;23.77;;;11.75;;
53287;SDS011;39172;45.550;12.072;2023-03-14T19:44:34;9.73;;;5.70;;
53287;SDS011;39172;45.550;12.072;2023-03-14T19:50:34;8.13;;;5.05;;
53287;SDS011;39172;45.550;12.072;2023-03-14T19:56:35;11.30;;;6.30;;
53287;SDS011;39172;45.550;12.072;2023-03-14T20:02:37;11.85;;;6.78;;
53287;SDS011;39172;45.550;12.072;2023-03-14T20:08:38;18.73;;;10.38;;
53287;SDS011;39172;45.550;12.072;2023-03-14T20:14:40;15.77;;;9.65;;
53287;SDS011;39172;45.550;12.072;2023-03-14T20:20:41;17.85;;;11.15;;
53287;SDS011;39172;45.550;12.072;2023-03-14T20:26:42;14.50;;;8.93;;
53287;SDS011;39172;45.550;12.072;2023-03-14T20:32:43;8.88;;;6.07;;
53287;SDS011;39172;45.550;12.072;2023-03-14T20:38:47;9.10;;;5.80;;
53287;SDS011;39172;45.550;12.072;2023-03-14T20:44:48;13.45;;;8.13;;
53287;SDS011;39172;45.550;12.072;2023-03-14T20:50:49;10.32;;;6.70;;
53287;SDS011;39172;45.550;12.072;2023-03-14T20:56:49;10.27;;;6.13;;
53287;SDS011;39172;45.550;12.072;2023-03-14T21:02:50;9.30;;;5.97;;
53287;SDS011;39172;45.550;12.072;2023-03-14T21:08:53;8.43;;;5.75;;
53287;SDS011;39172;45.550;12.072;2023-03-14T21:14:54;12.52;;;7.00;;
53287;SDS011;39172;45.550;12.072;2023-03-14T21:20:55;11.38;;;7.35;;
53287;SDS011;39172;45.550;12.072;2023-03-14T21:26:56;7.10;;;5.50;;
53287;SDS011;39172;45.550;12.072;2023-03-14T21:32:57;6.53;;;4.82;;
53287;SDS011;39172;45.550;12.072;2023-03-14T21:38:58;6.95;;;5.03;;
53287;SDS011;39172;45.550;12.072;2023-03-14T21:44:58;7.63;;;5.28;;
53287;SDS011;39172;45.550;12.072;2023-03-14T21:51:01;7.60;;;5.18;;
53287;SDS011;39172;45.550;12.072;2023-03-14T21:57:05;7.88;;;5.40;;
53287;SDS011;39172;45.550;12.072;2023-03-14T22:03:06;6.82;;;4.63;;
53287;SDS011;39172;45.550;12.072;2023-03-14T22:09:07;6.85;;;5.05;;
53287;SDS011;39172;45.550;12.072;2023-03-14T22:15:09;8.07;;;5.25;;
53287;SDS011;39172;45.550;12.072;2023-03-14T22:21:10;7.85;;;5.70;;
53287;SDS011;39172;45.550;12.072;2023-03-14T22:27:11;8.73;;;5.97;;
53287;SDS011;39172;45.550;12.072;2023-03-14T22:33:12;8.93;;;5.45;;
53287;SDS011;39172;45.550;12.072;2023-03-14T22:39:13;4.43;;;4.00;;
53287;SDS011;39172;45.550;12.072;2023-03-14T22:45:14;4.95;;;3.95;;
53287;SDS011;39172;45.550;12.072;2023-03-14T22:51:15;5.07;;;3.95;;
53287;SDS011;39172;45.550;12.072;2023-03-14T22:57:15;4.65;;;3.80;;
53287;SDS011;39172;45.550;12.072;2023-03-14T23:03:16;4.28;;;2.83;;
53287;SDS011;39172;45.550;12.072;2023-03-14T23:09:17;5.00;;;3.40;;
53287;SDS011;39172;45.550;12.072;2023-03-14T23:15:18;4.35;;;3.10;;
53287;SDS011;39172;45.550;12.072;2023-03-14T23:21:19;4.82;;;3.50;;
53287;SDS011;39172;45.550;12.072;2023-03-14T23:27:22;4.53;;;3.17;;
53287;SDS011;39172;45.550;12.072;2023-03-14T23:33:24;4.03;;;2.88;;
53287;SDS011;39172;45.550;12.072;2023-03-14T23:39:25;3.63;;;2.40;;
53287;SDS011;39172;45.550;12.072;2023-03-14T23:45:25;2.53;;;1.90;;
53287;SDS011;39172;45.550;12.072;2023-03-14T23:51:26;3.40;;;2.60;;
53287;SDS011;39172;45.550;12.072;2023-03-14T23:57:27;3.60;;;3.17;;
